createdAt,value
2019-02-25T00:00:13.692Z,0.00
2019-02-25T00:01:13.683Z,0.00
2019-02-25T00:02:13.682Z,0.00
2019-02-25T00:03:13.660Z,0.00
2019-02-25T00:04:13.650Z,0.00
2019-02-25T00:05:13.639Z,0.00
2019-02-25T00:06:13.627Z,0.00
2019-02-25T00:07:13.695Z,0.00
2019-02-25T00:08:13.601Z,0.00
2019-02-25T00:09:13.588Z,0.00
2019-02-25T00:10:15.368Z,0.00
2019-02-25T00:11:13.571Z,0.00
2019-02-25T00:12:13.556Z,0.00
2019-02-25T00:13:13.561Z,0.00
2019-02-25T00:14:13.539Z,0.00
2019-02-25T00:15:13.530Z,0.00
2019-02-25T00:16:13.519Z,0.00
2019-02-25T00:17:13.511Z,0.00
2019-02-25T00:18:13.537Z,0.00
2019-02-25T00:19:13.486Z,0.00
2019-02-25T00:20:13.469Z,0.00
2019-02-25T00:21:13.465Z,0.00
2019-02-25T00:22:13.453Z,0.00
2019-02-25T00:23:13.457Z,0.00
2019-02-25T00:24:13.428Z,0.00
2019-02-25T00:25:13.418Z,0.00
2019-02-25T00:26:13.404Z,0.00
2019-02-25T00:27:13.395Z,0.00
2019-02-25T00:28:13.392Z,0.00
2019-02-25T00:29:13.387Z,0.00
2019-02-25T00:30:13.367Z,0.00
2019-02-25T00:31:13.359Z,0.00
2019-02-25T00:32:13.341Z,0.00
2019-02-25T00:33:13.371Z,0.00
2019-02-25T00:34:13.322Z,0.00
2019-02-25T00:35:13.340Z,0.00
2019-02-25T00:36:13.301Z,0.00
2019-02-25T00:37:13.291Z,0.00
2019-02-25T00:38:13.288Z,0.00
2019-02-25T00:39:13.308Z,0.00
2019-02-25T00:40:13.289Z,0.00
2019-02-25T00:41:13.243Z,0.00
2019-02-25T00:42:13.231Z,0.00
2019-02-25T00:43:13.222Z,0.00
2019-02-25T00:44:13.215Z,0.00
2019-02-25T00:45:13.226Z,0.00
2019-02-25T00:46:13.196Z,0.00
2019-02-25T00:47:13.182Z,0.00
2019-02-25T00:48:13.169Z,0.00
2019-02-25T00:49:13.161Z,0.00
2019-02-25T00:50:13.147Z,0.00
2019-02-25T00:51:13.195Z,0.00
2019-02-25T00:52:13.123Z,0.00
2019-02-25T00:53:13.113Z,0.00
2019-02-25T00:54:13.109Z,0.00
2019-02-25T00:55:13.101Z,0.00
2019-02-25T00:56:13.083Z,0.00
2019-02-25T00:57:13.084Z,0.00
2019-02-25T00:58:13.056Z,0.00
2019-02-25T00:59:13.051Z,0.00
2019-02-25T01:00:13.037Z,0.00
2019-02-25T01:01:13.070Z,0.00
2019-02-25T01:02:13.021Z,0.00
2019-02-25T01:03:13.012Z,0.00
2019-02-25T01:04:12.993Z,0.00
2019-02-25T01:05:12.985Z,0.00
2019-02-25T01:06:12.984Z,0.00
2019-02-25T01:07:12.960Z,0.00
2019-02-25T01:08:12.959Z,0.00
2019-02-25T01:09:12.947Z,0.00
2019-02-25T01:10:12.933Z,0.00
2019-02-25T01:11:12.919Z,0.00
2019-02-25T01:12:12.951Z,0.00
2019-02-25T01:13:12.902Z,0.00
2019-02-25T01:14:12.898Z,0.00
2019-02-25T01:15:12.880Z,0.00
2019-02-25T01:16:12.864Z,0.00
2019-02-25T01:17:12.851Z,0.00
2019-02-25T01:18:12.858Z,0.00
2019-02-25T01:19:12.840Z,0.00
2019-02-25T01:20:12.823Z,0.00
2019-02-25T01:21:12.815Z,0.00
2019-02-25T01:22:12.805Z,0.00
2019-02-25T01:23:12.817Z,0.00
2019-02-25T01:24:12.777Z,0.00
2019-02-25T01:25:12.801Z,0.00
2019-02-25T01:26:12.755Z,0.00
2019-02-25T01:27:12.745Z,0.00
2019-02-25T01:28:12.769Z,0.00
2019-02-25T01:29:12.721Z,0.00
2019-02-25T01:30:12.716Z,0.00
2019-02-25T01:31:12.725Z,0.00
2019-02-25T01:32:12.692Z,0.00
2019-02-25T01:33:12.679Z,0.00
2019-02-25T01:34:12.678Z,0.00
2019-02-25T01:35:12.660Z,0.00
2019-02-25T01:36:12.647Z,0.00
2019-02-25T01:37:12.642Z,0.00
2019-02-25T01:38:12.629Z,0.00
2019-02-25T01:39:12.709Z,0.00
2019-02-25T01:40:12.609Z,0.00
2019-02-25T01:41:12.599Z,0.00
2019-02-25T01:42:12.588Z,0.00
2019-02-25T01:43:12.572Z,0.00
2019-02-25T01:44:12.562Z,0.00
2019-02-25T01:45:12.595Z,0.00
2019-02-25T01:46:12.545Z,0.00
2019-02-25T01:47:12.533Z,0.00
2019-02-25T01:48:12.522Z,0.00
2019-02-25T01:49:12.506Z,0.00
2019-02-25T01:50:12.543Z,0.00
2019-02-25T01:51:12.492Z,0.00
2019-02-25T01:52:12.475Z,0.00
2019-02-25T01:53:12.464Z,0.00
2019-02-25T01:54:12.453Z,0.00
2019-02-25T01:55:12.448Z,0.00
2019-02-25T01:56:12.446Z,0.00
2019-02-25T01:57:12.428Z,0.00
2019-02-25T01:58:12.410Z,0.00
2019-02-25T01:59:12.405Z,0.00
2019-02-25T02:00:12.407Z,0.00
2019-02-25T02:01:12.390Z,0.00
2019-02-25T02:02:12.451Z,0.00
2019-02-25T02:03:12.373Z,0.00
2019-02-25T02:04:12.345Z,0.00
2019-02-25T02:05:12.338Z,0.00
2019-02-25T02:06:12.324Z,0.00
2019-02-25T02:07:12.313Z,0.00
2019-02-25T02:08:12.319Z,0.00
2019-02-25T02:09:12.291Z,0.00
2019-02-25T02:10:12.279Z,0.00
2019-02-25T02:11:12.312Z,0.00
2019-02-25T02:12:12.271Z,0.00
2019-02-25T02:13:14.471Z,0.00
2019-02-25T02:14:12.240Z,0.00
2019-02-25T02:15:12.228Z,0.00
2019-02-25T02:16:12.214Z,0.00
2019-02-25T02:17:12.247Z,0.00
2019-02-25T02:18:12.224Z,0.00
2019-02-25T02:19:12.185Z,0.00
2019-02-25T02:20:12.171Z,0.00
2019-02-25T02:21:12.159Z,0.00
2019-02-25T02:22:12.158Z,0.00
2019-02-25T02:23:12.197Z,0.00
2019-02-25T02:24:12.132Z,0.00
2019-02-25T02:25:12.115Z,0.00
2019-02-25T02:26:12.109Z,0.00
2019-02-25T02:27:12.098Z,0.00
2019-02-25T02:28:12.089Z,0.00
2019-02-25T02:29:12.103Z,0.00
2019-02-25T02:30:12.067Z,0.00
2019-02-25T02:31:12.061Z,0.00
2019-02-25T02:32:12.045Z,0.00
2019-02-25T02:33:12.045Z,0.00
2019-02-25T02:34:12.023Z,0.00
2019-02-25T02:35:12.009Z,0.00
2019-02-25T02:36:12.038Z,0.00
2019-02-25T02:37:11.993Z,0.00
2019-02-25T02:38:11.978Z,0.00
2019-02-25T02:39:11.962Z,0.00
2019-02-25T02:40:11.951Z,0.00
2019-02-25T02:41:11.980Z,0.00
2019-02-25T02:42:11.968Z,0.00
2019-02-25T02:43:11.924Z,0.00
2019-02-25T02:44:11.908Z,0.00
2019-02-25T02:45:11.901Z,0.00
2019-02-25T02:46:11.892Z,0.00
2019-02-25T02:47:11.876Z,0.00
2019-02-25T02:48:11.881Z,0.00
2019-02-25T02:49:11.853Z,0.00
2019-02-25T02:50:11.846Z,0.00
2019-02-25T02:51:11.837Z,0.00
2019-02-25T02:52:11.824Z,0.00
2019-02-25T02:53:11.844Z,0.00
2019-02-25T02:54:11.805Z,0.00
2019-02-25T02:55:11.794Z,0.00
2019-02-25T02:56:11.821Z,0.00
2019-02-25T02:57:11.771Z,0.00
2019-02-25T02:58:11.766Z,0.00
2019-02-25T02:59:11.804Z,0.00
2019-02-25T03:00:11.738Z,0.00
2019-02-25T03:01:11.722Z,0.00
2019-02-25T03:02:11.717Z,0.00
2019-02-25T03:03:11.712Z,0.00
2019-02-25T03:04:11.690Z,0.00
2019-02-25T03:05:11.709Z,0.00
2019-02-25T03:06:11.674Z,0.00
2019-02-25T03:07:11.656Z,0.00
2019-02-25T03:08:11.648Z,0.00
2019-02-25T03:09:11.664Z,0.00
2019-02-25T03:10:11.633Z,0.00
2019-02-25T03:11:11.621Z,0.00
2019-02-25T03:12:11.606Z,0.00
2019-02-25T03:13:11.599Z,0.00
2019-02-25T03:14:11.587Z,0.00
2019-02-25T03:15:11.574Z,0.00
2019-02-25T03:16:11.559Z,0.00
2019-02-25T03:17:11.549Z,0.00
2019-02-25T03:18:11.592Z,0.00
2019-02-25T03:19:11.532Z,0.00
2019-02-25T03:20:11.530Z,0.00
2019-02-25T03:21:11.509Z,0.00
2019-02-25T03:22:11.497Z,0.00
2019-02-25T03:23:11.483Z,0.00
2019-02-25T03:24:11.500Z,0.00
2019-02-25T03:25:11.463Z,0.00
2019-02-25T03:26:11.449Z,0.00
2019-02-25T03:27:11.436Z,0.00
2019-02-25T03:28:11.469Z,0.00
2019-02-25T03:29:11.419Z,0.00
2019-02-25T03:30:11.412Z,0.00
2019-02-25T03:31:11.403Z,0.00
2019-02-25T03:32:11.389Z,0.00
2019-02-25T03:33:11.372Z,0.00
2019-02-25T03:34:11.403Z,0.00
2019-02-25T03:35:11.354Z,0.00
2019-02-25T03:36:11.341Z,0.00
2019-02-25T03:37:11.332Z,0.00
2019-02-25T03:38:11.324Z,0.00
2019-02-25T03:39:11.306Z,0.00
2019-02-25T03:40:11.362Z,0.00
2019-02-25T03:41:11.289Z,0.00
2019-02-25T03:42:11.273Z,0.00
2019-02-25T03:43:11.263Z,0.00
2019-02-25T03:44:11.250Z,0.00
2019-02-25T03:45:11.268Z,0.00
2019-02-25T03:46:11.262Z,0.00
2019-02-25T03:47:11.224Z,0.00
2019-02-25T03:48:11.209Z,0.00
2019-02-25T03:49:11.234Z,0.00
2019-02-25T03:50:11.189Z,0.00
2019-02-25T03:51:11.186Z,0.00
2019-02-25T03:52:11.164Z,0.00
2019-02-25T03:53:11.154Z,0.00
2019-02-25T03:54:11.176Z,0.00
2019-02-25T03:55:11.138Z,0.00
2019-02-25T03:56:11.183Z,0.00
2019-02-25T03:57:11.122Z,0.00
2019-02-25T03:58:11.104Z,0.00
2019-02-25T03:59:11.094Z,0.00
2019-02-25T04:00:11.082Z,0.00
2019-02-25T04:01:11.070Z,0.00
2019-02-25T04:02:11.085Z,0.00
2019-02-25T04:03:11.049Z,0.00
2019-02-25T04:04:11.032Z,0.00
2019-02-25T04:05:11.037Z,0.00
2019-02-25T04:06:11.050Z,0.00
2019-02-25T04:07:11.002Z,0.00
2019-02-25T04:08:11.066Z,0.00
2019-02-25T04:09:10.988Z,0.00
2019-02-25T04:10:10.977Z,0.00
2019-02-25T04:11:10.960Z,0.00
2019-02-25T04:12:10.951Z,0.00
2019-02-25T04:13:10.939Z,0.00
2019-02-25T04:14:10.939Z,0.00
2019-02-25T04:15:10.920Z,0.00
2019-02-25T04:16:10.904Z,0.00
2019-02-25T04:17:10.897Z,0.00
2019-02-25T04:18:10.890Z,0.00
2019-02-25T04:19:10.901Z,0.00
2019-02-25T04:20:10.858Z,0.00
2019-02-25T04:21:10.856Z,0.00
2019-02-25T04:22:10.835Z,0.00
2019-02-25T04:23:10.824Z,0.00
2019-02-25T04:24:10.815Z,0.00
2019-02-25T04:25:10.808Z,0.00
2019-02-25T04:26:10.884Z,0.00
2019-02-25T04:27:10.787Z,0.00
2019-02-25T04:28:10.776Z,0.00
2019-02-25T04:29:10.767Z,0.00
2019-02-25T04:30:10.755Z,0.00
2019-02-25T04:31:10.743Z,0.00
2019-02-25T04:32:10.756Z,0.00
2019-02-25T04:33:10.722Z,0.00
2019-02-25T04:34:10.714Z,0.00
2019-02-25T04:35:10.699Z,0.00
2019-02-25T04:36:10.769Z,0.00
2019-02-25T04:37:10.678Z,0.00
2019-02-25T04:38:10.671Z,0.00
2019-02-25T04:39:10.654Z,0.00
2019-02-25T04:40:10.669Z,0.00
2019-02-25T04:41:10.633Z,0.00
2019-02-25T04:42:10.618Z,0.00
2019-02-25T04:43:10.668Z,0.00
2019-02-25T04:44:10.596Z,0.00
2019-02-25T04:45:10.584Z,0.00
2019-02-25T04:46:10.575Z,0.00
2019-02-25T04:47:10.569Z,0.00
2019-02-25T04:48:10.570Z,0.00
2019-02-25T04:49:10.606Z,0.00
2019-02-25T04:50:10.538Z,0.00
2019-02-25T04:51:10.519Z,0.00
2019-02-25T04:52:10.509Z,0.00
2019-02-25T04:53:10.499Z,0.00
2019-02-25T04:54:10.493Z,0.00
2019-02-25T04:55:10.509Z,0.00
2019-02-25T04:56:10.471Z,0.00
2019-02-25T04:57:10.463Z,0.00
2019-02-25T04:58:10.444Z,0.00
2019-02-25T04:59:10.432Z,0.00
2019-02-25T05:00:10.507Z,0.00
2019-02-25T05:01:10.415Z,0.00
2019-02-25T05:02:10.402Z,0.00
2019-02-25T05:03:10.388Z,0.00
2019-02-25T05:04:10.394Z,0.00
2019-02-25T05:05:10.373Z,0.00
2019-02-25T05:06:10.403Z,0.00
2019-02-25T05:07:10.346Z,0.00
2019-02-25T05:08:10.340Z,0.00
2019-02-25T05:09:10.326Z,0.00
2019-02-25T05:10:10.313Z,0.00
2019-02-25T05:11:10.309Z,0.00
2019-02-25T05:12:10.355Z,0.00
2019-02-25T05:13:10.280Z,0.00
2019-02-25T05:14:10.270Z,0.00
2019-02-25T05:15:10.269Z,0.00
2019-02-25T05:16:10.252Z,0.00
2019-02-25T05:17:10.246Z,0.00
2019-02-25T05:18:10.269Z,0.00
2019-02-25T05:19:10.214Z,0.00
2019-02-25T05:20:10.207Z,0.00
2019-02-25T05:21:10.199Z,0.00
2019-02-25T05:22:10.188Z,0.00
2019-02-25T05:23:10.202Z,0.00
2019-02-25T05:24:10.165Z,0.00
2019-02-25T05:25:10.153Z,0.00
2019-02-25T05:26:10.140Z,0.00
2019-02-25T05:27:10.132Z,0.00
2019-02-25T05:28:10.158Z,0.00
2019-02-25T05:29:10.115Z,0.00
2019-02-25T05:30:10.103Z,0.00
2019-02-25T05:31:10.089Z,0.00
2019-02-25T05:32:10.092Z,0.00
2019-02-25T05:33:10.081Z,4.00
2019-02-25T05:34:10.051Z,4.00
2019-02-25T05:35:10.040Z,4.00
2019-02-25T05:36:10.086Z,0.00
2019-02-25T05:37:10.025Z,4.00
2019-02-25T05:38:10.012Z,4.00
2019-02-25T05:39:10.092Z,4.00
2019-02-25T05:40:09.994Z,4.00
2019-02-25T05:41:09.974Z,4.00
2019-02-25T05:42:10.026Z,8.00
2019-02-25T05:43:09.963Z,8.00
2019-02-25T05:44:09.962Z,8.00
2019-02-25T05:45:09.939Z,8.00
2019-02-25T05:46:09.941Z,12.00
2019-02-25T05:47:09.912Z,12.00
2019-02-25T05:48:09.918Z,12.00
2019-02-25T05:49:09.894Z,12.00
2019-02-25T05:50:09.922Z,16.00
2019-02-25T05:51:09.877Z,20.00
2019-02-25T05:52:09.855Z,24.00
2019-02-25T05:53:09.851Z,28.00
2019-02-25T05:54:09.855Z,32.00
2019-02-25T05:55:09.830Z,32.00
2019-02-25T05:56:09.842Z,40.00
2019-02-25T05:57:09.809Z,44.00
2019-02-25T05:58:09.804Z,48.00
2019-02-25T05:59:09.784Z,52.00
2019-02-25T06:00:09.769Z,56.00
2019-02-25T06:01:09.802Z,64.00
2019-02-25T06:02:09.747Z,68.00
2019-02-25T06:03:09.748Z,72.00
2019-02-25T06:04:09.731Z,80.00
2019-02-25T06:05:09.717Z,88.00
2019-02-25T06:06:09.786Z,100.00
2019-02-25T06:07:10.480Z,108.00
2019-02-25T06:08:09.689Z,120.00
2019-02-25T06:09:09.673Z,132.00
2019-02-25T06:10:09.664Z,144.00
2019-02-25T06:11:09.648Z,156.00
2019-02-25T06:12:09.672Z,172.00
2019-02-25T06:13:09.644Z,188.00
2019-02-25T06:14:09.625Z,200.00
2019-02-25T06:15:09.612Z,216.00
2019-02-25T06:16:09.594Z,232.00
2019-02-25T06:17:09.643Z,248.00
2019-02-25T06:18:09.578Z,264.00
2019-02-25T06:19:09.563Z,280.00
2019-02-25T06:20:09.561Z,300.00
2019-02-25T06:21:09.546Z,316.00
2019-02-25T06:22:16.580Z,336.00
2019-02-25T06:23:09.537Z,360.00
2019-02-25T06:24:09.506Z,380.00
2019-02-25T06:25:09.497Z,400.00
2019-02-25T06:26:09.493Z,424.00
2019-02-25T06:27:09.483Z,448.00
2019-02-25T06:28:09.508Z,472.00
2019-02-25T06:29:09.452Z,496.00
2019-02-25T06:30:09.445Z,520.00
2019-02-25T06:31:09.430Z,544.00
2019-02-25T06:32:09.448Z,560.00
2019-02-25T06:33:09.445Z,580.00
2019-02-25T06:34:09.431Z,600.00
2019-02-25T06:35:09.426Z,620.00
2019-02-25T06:36:09.381Z,636.00
2019-02-25T06:37:09.367Z,656.00
2019-02-25T06:38:09.359Z,676.00
2019-02-25T06:39:09.391Z,692.00
2019-02-25T06:40:09.337Z,712.00
2019-02-25T06:41:09.329Z,732.00
2019-02-25T06:42:09.370Z,756.00
2019-02-25T06:43:09.343Z,780.00
2019-02-25T06:44:09.295Z,800.00
2019-02-25T06:45:09.288Z,820.00
2019-02-25T06:46:09.275Z,840.00
2019-02-25T06:47:09.261Z,864.00
2019-02-25T06:48:09.291Z,880.00
2019-02-25T06:49:09.250Z,900.00
2019-02-25T06:50:09.222Z,920.00
2019-02-25T06:51:09.218Z,932.00
2019-02-25T06:52:09.205Z,944.00
2019-02-25T06:53:09.200Z,956.00
2019-02-25T06:54:09.184Z,964.00
2019-02-25T06:55:09.174Z,968.00
2019-02-25T06:56:09.157Z,984.00
2019-02-25T06:57:09.303Z,996.00
2019-02-25T06:58:09.157Z,1012.00
2019-02-25T06:59:09.124Z,1028.00
2019-02-25T07:00:09.118Z,1044.00
2019-02-25T07:01:09.111Z,1064.00
2019-02-25T07:02:09.093Z,1080.00
2019-02-25T07:03:09.080Z,1100.00
2019-02-25T07:04:09.073Z,1112.00
2019-02-25T07:05:09.121Z,1124.00
2019-02-25T07:06:09.065Z,1144.00
2019-02-25T07:07:09.038Z,1164.00
2019-02-25T07:08:09.033Z,1184.00
2019-02-25T07:09:09.015Z,1196.00
2019-02-25T07:10:09.011Z,1200.00
2019-02-25T07:11:09.039Z,1200.00
2019-02-25T07:12:08.988Z,1204.00
2019-02-25T07:13:08.978Z,1212.00
2019-02-25T07:14:08.970Z,1224.00
2019-02-25T07:15:08.956Z,1228.00
2019-02-25T07:16:08.984Z,1232.00
2019-02-25T07:17:08.934Z,1236.00
2019-02-25T07:18:08.921Z,1260.00
2019-02-25T07:19:09.480Z,1280.00
2019-02-25T07:20:08.897Z,1300.00
2019-02-25T07:21:08.926Z,1300.00
2019-02-25T07:22:08.881Z,1316.00
2019-02-25T07:23:08.867Z,1344.00
2019-02-25T07:24:08.858Z,1364.00
2019-02-25T07:25:08.840Z,1384.00
2019-02-25T07:26:08.842Z,1412.00
2019-02-25T07:27:08.828Z,1420.00
2019-02-25T07:28:08.817Z,1436.00
2019-02-25T07:29:08.796Z,1456.00
2019-02-25T07:30:08.802Z,1476.00
2019-02-25T07:31:08.781Z,1496.00
2019-02-25T07:32:08.784Z,1520.00
2019-02-25T07:33:08.759Z,1544.00
2019-02-25T07:34:08.747Z,1560.00
2019-02-25T07:35:08.733Z,1588.00
2019-02-25T07:36:08.734Z,1624.00
2019-02-25T07:37:08.719Z,1652.00
2019-02-25T07:38:08.705Z,1676.00
2019-02-25T07:39:08.709Z,1716.00
2019-02-25T07:40:08.686Z,1752.00
2019-02-25T07:41:08.679Z,1780.00
2019-02-25T07:42:08.654Z,1804.00
2019-02-25T07:43:08.658Z,1820.00
2019-02-25T07:44:08.643Z,1852.00
2019-02-25T07:45:08.626Z,1872.00
2019-02-25T07:46:08.617Z,1904.00
2019-02-25T07:47:08.603Z,1928.00
2019-02-25T07:48:08.624Z,1956.00
2019-02-25T07:49:08.585Z,1992.00
2019-02-25T07:50:08.576Z,2020.00
2019-02-25T07:51:08.561Z,2056.00
2019-02-25T07:52:08.550Z,2080.00
2019-02-25T07:53:08.540Z,2092.00
2019-02-25T07:54:08.543Z,2088.00
2019-02-25T07:55:08.517Z,2076.00
2019-02-25T07:56:08.512Z,2064.00
2019-02-25T07:57:08.498Z,2064.00
2019-02-25T07:58:08.487Z,2020.00
2019-02-25T07:59:08.512Z,2064.00
2019-02-25T08:00:08.466Z,2108.00
2019-02-25T08:01:08.448Z,2112.00
2019-02-25T08:02:08.442Z,2148.00
2019-02-25T08:03:08.431Z,2188.00
2019-02-25T08:04:08.416Z,2204.00
2019-02-25T08:05:08.461Z,2200.00
2019-02-25T08:06:08.399Z,2252.00
2019-02-25T08:07:08.385Z,2272.00
2019-02-25T08:08:08.378Z,2276.00
2019-02-25T08:09:08.366Z,2276.00
2019-02-25T08:10:08.354Z,2280.00
2019-02-25T08:11:08.387Z,2368.00
2019-02-25T08:12:08.338Z,2420.00
2019-02-25T08:13:08.321Z,2472.00
2019-02-25T08:14:08.309Z,2496.00
2019-02-25T08:15:09.113Z,2520.00
2019-02-25T08:16:08.291Z,2520.00
2019-02-25T08:17:08.282Z,2548.00
2019-02-25T08:18:08.265Z,2560.00
2019-02-25T08:19:08.260Z,2552.00
2019-02-25T08:20:08.242Z,2536.00
2019-02-25T08:21:08.281Z,2504.00
2019-02-25T08:22:08.225Z,2488.00
2019-02-25T08:23:08.214Z,2492.00
2019-02-25T08:24:08.206Z,2464.00
2019-02-25T08:25:08.203Z,2468.00
2019-02-25T08:26:08.179Z,2508.00
2019-02-25T08:27:08.211Z,2524.00
2019-02-25T08:28:08.159Z,2532.00
2019-02-25T08:29:08.147Z,2540.00
2019-02-25T08:30:08.132Z,2536.00
2019-02-25T08:31:09.274Z,2504.00
2019-02-25T08:32:08.110Z,2580.00
2019-02-25T08:33:08.104Z,2636.00
2019-02-25T08:34:08.089Z,2724.00
2019-02-25T08:35:08.100Z,3016.00
2019-02-25T08:36:08.071Z,3016.00
2019-02-25T08:37:08.101Z,3948.00
2019-02-25T08:38:08.049Z,4856.00
2019-02-25T08:39:08.039Z,5892.00
2019-02-25T08:40:08.028Z,6408.00
2019-02-25T08:41:08.041Z,6868.00
2019-02-25T08:42:08.001Z,7124.00
2019-02-25T08:43:08.050Z,7352.00
2019-02-25T08:44:07.996Z,7408.00
2019-02-25T08:45:07.967Z,7488.00
2019-02-25T08:46:07.963Z,7740.00
2019-02-25T08:47:07.950Z,7924.00
2019-02-25T08:48:08.017Z,7940.00
2019-02-25T08:49:07.970Z,8096.00
2019-02-25T08:50:07.912Z,8284.00
2019-02-25T08:51:08.041Z,8148.00
2019-02-25T08:52:07.897Z,8112.00
2019-02-25T08:53:07.978Z,8136.00
2019-02-25T08:54:07.870Z,8356.00
2019-02-25T08:55:07.865Z,8224.00
2019-02-25T08:56:07.855Z,8276.00
2019-02-25T08:57:07.842Z,8396.00
2019-02-25T08:58:07.833Z,8248.00
2019-02-25T08:59:07.873Z,7104.00
2019-02-25T09:00:07.808Z,7980.00
2019-02-25T09:01:07.797Z,6992.00
2019-02-25T09:02:07.786Z,7156.00
2019-02-25T09:03:07.770Z,7552.00
2019-02-25T09:04:07.763Z,7244.00
2019-02-25T09:05:07.793Z,7656.00
2019-02-25T09:06:07.748Z,7236.00
2019-02-25T09:07:07.731Z,7960.00
2019-02-25T09:08:07.723Z,8600.00
2019-02-25T09:09:07.736Z,8964.00
2019-02-25T09:10:07.744Z,9080.00
2019-02-25T09:11:13.897Z,9084.00
2019-02-25T09:12:08.669Z,9168.00
2019-02-25T09:13:07.662Z,9260.00
2019-02-25T09:14:07.658Z,9392.00
2019-02-25T09:15:07.639Z,9444.00
2019-02-25T09:16:07.656Z,9552.00
2019-02-25T09:17:07.619Z,9632.00
2019-02-25T09:18:07.609Z,9708.00
2019-02-25T09:19:07.594Z,9688.00
2019-02-25T09:20:07.582Z,9760.00
2019-02-25T09:21:08.242Z,9664.00
2019-02-25T09:22:07.590Z,9604.00
2019-02-25T09:23:07.553Z,9672.00
2019-02-25T09:24:07.547Z,9696.00
2019-02-25T09:25:07.534Z,9640.00
2019-02-25T09:26:07.522Z,9052.00
2019-02-25T09:27:07.523Z,8976.00
2019-02-25T09:28:07.518Z,9156.00
2019-02-25T09:29:07.489Z,8744.00
2019-02-25T09:30:07.489Z,9164.00
2019-02-25T09:31:07.461Z,9132.00
2019-02-25T09:32:07.464Z,8796.00
2019-02-25T09:33:07.509Z,8728.00
2019-02-25T09:34:07.435Z,9076.00
2019-02-25T09:35:07.418Z,9092.00
2019-02-25T09:36:07.412Z,8984.00
2019-02-25T09:37:07.406Z,8800.00
2019-02-25T09:38:07.429Z,9292.00
2019-02-25T09:39:07.520Z,9424.00
2019-02-25T09:40:07.502Z,9472.00
2019-02-25T09:41:07.381Z,9392.00
2019-02-25T09:42:07.341Z,9488.00
2019-02-25T09:43:07.335Z,9976.00
2019-02-25T09:44:07.321Z,9836.00
2019-02-25T09:45:07.396Z,10088.00
2019-02-25T09:46:07.303Z,9852.00
2019-02-25T09:47:07.291Z,10336.00
2019-02-25T09:48:07.282Z,10324.00
2019-02-25T09:49:07.288Z,9836.00
2019-02-25T09:50:07.255Z,9708.00
2019-02-25T09:51:07.287Z,10000.00
2019-02-25T09:52:07.261Z,9780.00
2019-02-25T09:53:07.474Z,9244.00
2019-02-25T09:54:07.216Z,9044.00
2019-02-25T09:55:07.238Z,8352.00
2019-02-25T09:56:07.218Z,7900.00
2019-02-25T09:57:07.178Z,8636.00
2019-02-25T09:58:07.174Z,8788.00
2019-02-25T09:59:07.196Z,8344.00
2019-02-25T10:00:07.144Z,8788.00
2019-02-25T10:01:07.164Z,9128.00
2019-02-25T10:02:07.185Z,9040.00
2019-02-25T10:03:07.118Z,9468.00
2019-02-25T10:04:08.713Z,9112.00
2019-02-25T10:05:07.089Z,9316.00
2019-02-25T10:06:07.084Z,9440.00
2019-02-25T10:07:07.127Z,8792.00
2019-02-25T10:08:07.062Z,8624.00
2019-02-25T10:09:07.044Z,9028.00
2019-02-25T10:10:07.040Z,8940.00
2019-02-25T10:11:07.065Z,8408.00
2019-02-25T10:12:07.017Z,9288.00
2019-02-25T10:13:07.044Z,9420.00
2019-02-25T10:14:06.992Z,9464.00
2019-02-25T10:15:06.984Z,9116.00
2019-02-25T10:16:06.981Z,9012.00
2019-02-25T10:17:06.966Z,9136.00
2019-02-25T10:18:06.991Z,9072.00
2019-02-25T10:19:06.939Z,9136.00
2019-02-25T10:20:06.933Z,9412.00
2019-02-25T10:21:06.913Z,9464.00
2019-02-25T10:22:06.946Z,9660.00
2019-02-25T10:23:06.950Z,9644.00
2019-02-25T10:24:06.884Z,9396.00
2019-02-25T10:25:06.876Z,9600.00
2019-02-25T10:26:06.860Z,9480.00
2019-02-25T10:27:06.853Z,9360.00
2019-02-25T10:28:06.843Z,8484.00
2019-02-25T10:29:06.871Z,9220.00
2019-02-25T10:30:06.814Z,8484.00
2019-02-25T10:31:06.817Z,8136.00
2019-02-25T10:32:06.803Z,8980.00
2019-02-25T10:33:06.787Z,9076.00
2019-02-25T10:34:07.662Z,9236.00
2019-02-25T10:35:06.765Z,9408.00
2019-02-25T10:36:06.755Z,9380.00
2019-02-25T10:37:06.738Z,9092.00
2019-02-25T10:38:06.730Z,9260.00
2019-02-25T10:39:08.588Z,9304.00
2019-02-25T10:40:06.790Z,9312.00
2019-02-25T10:41:06.700Z,9200.00
2019-02-25T10:42:06.689Z,9232.00
2019-02-25T10:43:06.676Z,9304.00
2019-02-25T10:44:08.503Z,9160.00
2019-02-25T10:45:07.246Z,9100.00
2019-02-25T10:46:07.116Z,9232.00
2019-02-25T10:47:06.631Z,9292.00
2019-02-25T10:48:06.617Z,9352.00
2019-02-25T10:49:11.662Z,9344.00
2019-02-25T10:50:07.597Z,9404.00
2019-02-25T10:51:07.651Z,9392.00
2019-02-25T10:52:08.669Z,9408.00
2019-02-25T10:53:06.571Z,9476.00
2019-02-25T10:54:06.557Z,9236.00
2019-02-25T10:55:06.540Z,9204.00
2019-02-25T10:56:06.601Z,9528.00
2019-02-25T10:57:06.527Z,9264.00
2019-02-25T10:58:06.513Z,9576.00
2019-02-25T10:59:08.098Z,9472.00
2019-02-25T11:00:07.407Z,9220.00
2019-02-25T11:01:08.458Z,8300.00
2019-02-25T11:02:09.101Z,9144.00
2019-02-25T11:03:06.579Z,9408.00
2019-02-25T11:04:06.441Z,9964.00
2019-02-25T11:05:06.430Z,14128.00
2019-02-25T11:06:06.424Z,16096.00
2019-02-25T11:07:07.850Z,16320.00
2019-02-25T11:08:07.409Z,14892.00
2019-02-25T11:09:06.955Z,12488.00
2019-02-25T11:10:06.381Z,10376.00
2019-02-25T11:11:06.372Z,9780.00
2019-02-25T11:12:06.400Z,9240.00
2019-02-25T11:13:06.454Z,9196.00
2019-02-25T11:14:07.263Z,9228.00
2019-02-25T11:15:07.372Z,8844.00
2019-02-25T11:16:06.312Z,8932.00
2019-02-25T11:17:06.305Z,8888.00
2019-02-25T11:18:06.292Z,9012.00
2019-02-25T11:19:06.310Z,8788.00
2019-02-25T11:20:06.268Z,8744.00
2019-02-25T11:21:08.377Z,8636.00
2019-02-25T11:22:08.461Z,8400.00
2019-02-25T11:23:06.320Z,8388.00
2019-02-25T11:24:06.256Z,8264.00
2019-02-25T11:25:06.214Z,8420.00
2019-02-25T11:26:06.211Z,8368.00
2019-02-25T11:27:07.348Z,8232.00
2019-02-25T11:28:07.638Z,8176.00
2019-02-25T11:29:08.172Z,8112.00
2019-02-25T11:30:06.166Z,8152.00
2019-02-25T11:31:06.148Z,8172.00
2019-02-25T11:32:06.144Z,8160.00
2019-02-25T11:33:06.131Z,8200.00
2019-02-25T11:34:07.986Z,8164.00
2019-02-25T11:35:06.766Z,8152.00
2019-02-25T11:36:06.099Z,8212.00
2019-02-25T11:37:06.096Z,8204.00
2019-02-25T11:38:06.077Z,8060.00
2019-02-25T11:39:06.950Z,8076.00
2019-02-25T11:40:06.050Z,8064.00
2019-02-25T11:41:07.121Z,8048.00
2019-02-25T11:42:07.908Z,8024.00
2019-02-25T11:43:06.031Z,7968.00
2019-02-25T11:44:06.013Z,7864.00
2019-02-25T11:45:06.040Z,7844.00
2019-02-25T11:46:05.993Z,7780.00
2019-02-25T11:47:05.984Z,7688.00
2019-02-25T11:48:05.964Z,7572.00
2019-02-25T11:49:05.958Z,7448.00
2019-02-25T11:50:05.987Z,7408.00
2019-02-25T11:51:05.937Z,7336.00
2019-02-25T11:52:05.927Z,7252.00
2019-02-25T11:53:05.923Z,7168.00
2019-02-25T11:54:05.906Z,7164.00
2019-02-25T11:55:05.978Z,7128.00
2019-02-25T11:56:05.878Z,7032.00
2019-02-25T11:57:05.874Z,7000.00
2019-02-25T11:58:05.860Z,6960.00
2019-02-25T11:59:05.862Z,6996.00
2019-02-25T12:00:05.849Z,6964.00
2019-02-25T12:01:05.870Z,7028.00
2019-02-25T12:02:05.827Z,6904.00
2019-02-25T12:03:05.806Z,6800.00
2019-02-25T12:04:05.798Z,6748.00
2019-02-25T12:05:05.827Z,6748.00
2019-02-25T12:06:05.770Z,6712.00
2019-02-25T12:07:05.760Z,6708.00
2019-02-25T12:08:05.750Z,6660.00
2019-02-25T12:09:05.741Z,6692.00
2019-02-25T12:10:05.775Z,6604.00
2019-02-25T12:11:05.722Z,6528.00
2019-02-25T12:12:05.754Z,6384.00
2019-02-25T12:13:05.701Z,6364.00
2019-02-25T12:14:05.686Z,6504.00
2019-02-25T12:15:05.676Z,6456.00
2019-02-25T12:16:05.704Z,6376.00
2019-02-25T12:17:05.651Z,6332.00
2019-02-25T12:18:05.686Z,6272.00
2019-02-25T12:19:05.629Z,6132.00
2019-02-25T12:20:05.625Z,6136.00
2019-02-25T12:21:05.612Z,6192.00
2019-02-25T12:22:05.682Z,6340.00
2019-02-25T12:23:05.591Z,6544.00
2019-02-25T12:24:05.576Z,6580.00
2019-02-25T12:25:05.570Z,6976.00
2019-02-25T12:26:05.556Z,7488.00
2019-02-25T12:27:05.547Z,7452.00
2019-02-25T12:28:05.562Z,7572.00
2019-02-25T12:29:10.804Z,7720.00
2019-02-25T12:30:06.508Z,7684.00
2019-02-25T12:31:05.502Z,7700.00
2019-02-25T12:32:05.485Z,7780.00
2019-02-25T12:33:05.522Z,7784.00
2019-02-25T12:34:05.464Z,7708.00
2019-02-25T12:35:05.481Z,7484.00
2019-02-25T12:36:05.446Z,7100.00
2019-02-25T12:37:05.430Z,6740.00
2019-02-25T12:38:05.502Z,6508.00
2019-02-25T12:39:05.412Z,6424.00